sensor_id;sensor_type;location;lat;lon;timestamp;pressure;altitude;pressure_sealevel;temperature;humidity
47750;BME280;49810;48.160;10.812;2022-11-20T00:01:23;94697.28;;;4.56;85.50
47750;BME280;49810;48.160;10.812;2022-11-20T00:03:54;94700.31;;;4.53;85.39
47750;BME280;49810;48.160;10.812;2022-11-20T00:06:24;94701.13;;;4.54;85.51
47750;BME280;49810;48.160;10.812;2022-11-20T00:08:54;94701.44;;;4.46;85.67
47750;BME280;49810;48.160;10.812;2022-11-20T00:11:25;94693.28;;;4.54;85.50
47750;BME280;49810;48.160;10.812;2022-11-20T00:13:56;94696.41;;;4.44;85.59
47750;BME280;49810;48.160;10.812;2022-11-20T00:16:27;94704.78;;;4.53;85.38
47750;BME280;49810;48.160;10.812;2022-11-20T00:18:55;94699.13;;;4.56;85.41
47750;BME280;49810;48.160;10.812;2022-11-20T00:21:25;94704.09;;;4.57;85.36
47750;BME280;49810;48.160;10.812;2022-11-20T00:23:55;94703.66;;;4.60;85.22
47750;BME280;49810;48.160;10.812;2022-11-20T00:26:25;94707.53;;;4.58;85.75
47750;BME280;49810;48.160;10.812;2022-11-20T00:28:56;94715.94;;;4.60;85.40
47750;BME280;49810;48.160;10.812;2022-11-20T00:31:25;94712.34;;;4.61;85.11
47750;BME280;49810;48.160;10.812;2022-11-20T00:33:54;94711.66;;;4.65;85.10
47750;BME280;49810;48.160;10.812;2022-11-20T00:36:24;94704.63;;;4.66;84.97
47750;BME280;49810;48.160;10.812;2022-11-20T00:38:53;94718.06;;;4.69;85.17
47750;BME280;49810;48.160;10.812;2022-11-20T00:41:23;94710.75;;;4.71;84.77
47750;BME280;49810;48.160;10.812;2022-11-20T00:43:52;94722.47;;;4.69;84.64
47750;BME280;49810;48.160;10.812;2022-11-20T00:46:24;94718.09;;;4.81;84.62
47750;BME280;49810;48.160;10.812;2022-11-20T00:48:52;94724.38;;;4.80;84.51
47750;BME280;49810;48.160;10.812;2022-11-20T00:51:22;94725.25;;;4.74;84.59
47750;BME280;49810;48.160;10.812;2022-11-20T00:53:51;94725.59;;;4.77;84.42
47750;BME280;49810;48.160;10.812;2022-11-20T00:56:19;94728.22;;;4.77;84.41
47750;BME280;49810;48.160;10.812;2022-11-20T00:58:48;94721.06;;;4.84;84.31
47750;BME280;49810;48.160;10.812;2022-11-20T01:01:19;94733.81;;;4.81;84.51
47750;BME280;49810;48.160;10.812;2022-11-20T01:03:50;94739.47;;;4.78;84.41
47750;BME280;49810;48.160;10.812;2022-11-20T01:06:21;94734.25;;;4.78;84.53
47750;BME280;49810;48.160;10.812;2022-11-20T01:08:52;94732.53;;;4.72;84.38
47750;BME280;49810;48.160;10.812;2022-11-20T01:11:23;94725.47;;;4.72;84.44
47750;BME280;49810;48.160;10.812;2022-11-20T01:13:52;94731.34;;;4.68;84.45
47750;BME280;49810;48.160;10.812;2022-11-20T01:16:23;94728.97;;;4.66;84.62
47750;BME280;49810;48.160;10.812;2022-11-20T01:18:55;94734.66;;;4.63;84.37
47750;BME280;49810;48.160;10.812;2022-11-20T01:21:26;94729.03;;;4.60;84.42
47750;BME280;49810;48.160;10.812;2022-11-20T01:23:55;94744.03;;;4.53;84.82
47750;BME280;49810;48.160;10.812;2022-11-20T01:26:26;94730.28;;;4.57;84.62
47750;BME280;49810;48.160;10.812;2022-11-20T01:28:55;94737.44;;;4.50;84.64
47750;BME280;49810;48.160;10.812;2022-11-20T01:31:25;94741.50;;;4.46;84.52
47750;BME280;49810;48.160;10.812;2022-11-20T01:33:57;94734.53;;;4.40;84.82
47750;BME280;49810;48.160;10.812;2022-11-20T01:36:27;94731.19;;;4.33;84.98
47750;BME280;49810;48.160;10.812;2022-11-20T01:38:59;94743.91;;;4.30;85.23
47750;BME280;49810;48.160;10.812;2022-11-20T01:41:29;94743.78;;;4.25;85.42
47750;BME280;49810;48.160;10.812;2022-11-20T01:44:14;94747.25;;;4.19;85.33
47750;BME280;49810;48.160;10.812;2022-11-20T01:46:52;94749.50;;;4.15;85.42
47750;BME280;49810;48.160;10.812;2022-11-20T01:49:26;94747.97;;;4.08;85.48
47750;BME280;49810;48.160;10.812;2022-11-20T01:51:58;94747.16;;;4.07;85.09
47750;BME280;49810;48.160;10.812;2022-11-20T01:54:33;94749.84;;;4.01;85.25
47750;BME280;49810;48.160;10.812;2022-11-20T01:57:04;94748.84;;;4.02;85.26
47750;BME280;49810;48.160;10.812;2022-11-20T01:59:35;94758.06;;;4.04;85.06
47750;BME280;49810;48.160;10.812;2022-11-20T02:02:06;94752.47;;;4.01;85.11
47750;BME280;49810;48.160;10.812;2022-11-20T02:04:36;94753.13;;;3.96;85.17
47750;BME280;49810;48.160;10.812;2022-11-20T02:07:05;94753.47;;;4.00;84.84
47750;BME280;49810;48.160;10.812;2022-11-20T02:09:33;94746.88;;;3.97;84.83
47750;BME280;49810;48.160;10.812;2022-11-20T02:12:01;94745.50;;;3.95;85.07
47750;BME280;49810;48.160;10.812;2022-11-20T02:14:30;94750.78;;;3.88;84.85
47750;BME280;49810;48.160;10.812;2022-11-20T02:16:58;94742.88;;;3.95;84.50
47750;BME280;49810;48.160;10.812;2022-11-20T02:19:28;94749.63;;;4.02;83.88
47750;BME280;49810;48.160;10.812;2022-11-20T02:22:03;94756.03;;;4.06;83.99
47750;BME280;49810;48.160;10.812;2022-11-20T02:24:35;94751.41;;;4.08;83.57
47750;BME280;49810;48.160;10.812;2022-11-20T02:27:07;94751.91;;;4.17;83.35
47750;BME280;49810;48.160;10.812;2022-11-20T02:29:38;94753.63;;;4.23;83.01
47750;BME280;49810;48.160;10.812;2022-11-20T02:32:17;94747.97;;;4.26;83.11
47750;BME280;49810;48.160;10.812;2022-11-20T02:34:46;94746.66;;;4.35;82.93
47750;BME280;49810;48.160;10.812;2022-11-20T02:37:14;94743.84;;;4.36;83.06
47750;BME280;49810;48.160;10.812;2022-11-20T02:39:46;94745.50;;;4.31;83.21
47750;BME280;49810;48.160;10.812;2022-11-20T02:42:15;94742.00;;;4.37;83.30
47750;BME280;49810;48.160;10.812;2022-11-20T02:44:44;94742.16;;;4.42;83.45
47750;BME280;49810;48.160;10.812;2022-11-20T02:47:12;94730.22;;;4.46;83.55
47750;BME280;49810;48.160;10.812;2022-11-20T02:49:40;94737.78;;;4.54;83.35
47750;BME280;49810;48.160;10.812;2022-11-20T02:52:08;94752.69;;;4.53;83.50
47750;BME280;49810;48.160;10.812;2022-11-20T02:54:36;94745.63;;;4.54;83.35
47750;BME280;49810;48.160;10.812;2022-11-20T02:57:05;94745.94;;;4.46;83.70
47750;BME280;49810;48.160;10.812;2022-11-20T02:59:34;94748.03;;;4.55;83.59
47750;BME280;49810;48.160;10.812;2022-11-20T03:02:02;94749.84;;;4.55;83.65
47750;BME280;49810;48.160;10.812;2022-11-20T03:04:30;94748.03;;;4.55;83.35
47750;BME280;49810;48.160;10.812;2022-11-20T03:06:59;94747.97;;;4.62;82.87
47750;BME280;49810;48.160;10.812;2022-11-20T03:09:28;94737.13;;;4.58;82.83
47750;BME280;49810;48.160;10.812;2022-11-20T03:11:56;94749.19;;;4.59;82.54
47750;BME280;49810;48.160;10.812;2022-11-20T03:14:26;94739.28;;;4.61;82.05
47750;BME280;49810;48.160;10.812;2022-11-20T03:16:55;94744.44;;;4.68;81.80
47750;BME280;49810;48.160;10.812;2022-11-20T03:19:23;94739.06;;;4.63;82.18
47750;BME280;49810;48.160;10.812;2022-11-20T03:21:51;94739.00;;;4.69;81.66
47750;BME280;49810;48.160;10.812;2022-11-20T03:24:19;94731.72;;;4.71;82.17
47750;BME280;49810;48.160;10.812;2022-11-20T03:26:48;94738.78;;;4.71;81.71
47750;BME280;49810;48.160;10.812;2022-11-20T03:29:16;94736.50;;;4.74;81.83
47750;BME280;49810;48.160;10.812;2022-11-20T03:31:46;94743.22;;;4.70;82.03
47750;BME280;49810;48.160;10.812;2022-11-20T03:34:14;94746.28;;;4.67;82.40
47750;BME280;49810;48.160;10.812;2022-11-20T03:36:42;94731.72;;;4.71;81.93
47750;BME280;49810;48.160;10.812;2022-11-20T03:39:11;94745.25;;;4.68;82.06
47750;BME280;49810;48.160;10.812;2022-11-20T03:41:40;94737.97;;;4.70;81.96
47750;BME280;49810;48.160;10.812;2022-11-20T03:44:10;94743.81;;;4.72;81.96
47750;BME280;49810;48.160;10.812;2022-11-20T03:46:39;94739.81;;;4.70;82.26
47750;BME280;49810;48.160;10.812;2022-11-20T03:49:08;94738.50;;;4.61;82.50
47750;BME280;49810;48.160;10.812;2022-11-20T03:51:36;94743.59;;;4.74;82.22
47750;BME280;49810;48.160;10.812;2022-11-20T03:54:06;94742.19;;;4.71;82.32
47750;BME280;49810;48.160;10.812;2022-11-20T03:56:37;94747.59;;;4.76;82.23
47750;BME280;49810;48.160;10.812;2022-11-20T03:59:06;94736.94;;;4.71;82.48
47750;BME280;49810;48.160;10.812;2022-11-20T04:01:37;94745.63;;;4.72;82.67
47750;BME280;49810;48.160;10.812;2022-11-20T04:04:09;94749.38;;;4.76;82.01
47750;BME280;49810;48.160;10.812;2022-11-20T04:06:38;94743.00;;;4.72;82.33
47750;BME280;49810;48.160;10.812;2022-11-20T04:09:06;94746.22;;;4.74;82.44
47750;BME280;49810;48.160;10.812;2022-11-20T04:11:35;94735.44;;;4.64;82.20
47750;BME280;49810;48.160;10.812;2022-11-20T04:14:06;94732.53;;;4.72;81.65
47750;BME280;49810;48.160;10.812;2022-11-20T04:16:35;94743.00;;;4.72;82.01
47750;BME280;49810;48.160;10.812;2022-11-20T04:19:06;94743.94;;;4.77;81.82
47750;BME280;49810;48.160;10.812;2022-11-20T04:21:35;94735.94;;;4.72;81.28
47750;BME280;49810;48.160;10.812;2022-11-20T04:24:04;94738.47;;;4.79;81.03
47750;BME280;49810;48.160;10.812;2022-11-20T04:26:32;94732.88;;;4.75;80.94
47750;BME280;49810;48.160;10.812;2022-11-20T04:29:01;94735.72;;;4.74;81.03
47750;BME280;49810;48.160;10.812;2022-11-20T04:31:32;94732.88;;;4.75;80.72
47750;BME280;49810;48.160;10.812;2022-11-20T04:34:02;94731.28;;;4.74;80.94
47750;BME280;49810;48.160;10.812;2022-11-20T04:36:31;94731.41;;;4.79;80.59
47750;BME280;49810;48.160;10.812;2022-11-20T04:39:03;94737.53;;;4.73;80.90
47750;BME280;49810;48.160;10.812;2022-11-20T04:41:34;94727.88;;;4.74;80.85
47750;BME280;49810;48.160;10.812;2022-11-20T04:44:05;94738.56;;;4.72;81.11
47750;BME280;49810;48.160;10.812;2022-11-20T04:46:35;94734.78;;;4.68;81.54
47750;BME280;49810;48.160;10.812;2022-11-20T04:49:04;94734.44;;;4.65;81.55
47750;BME280;49810;48.160;10.812;2022-11-20T04:51:32;94739.06;;;4.63;81.56
47750;BME280;49810;48.160;10.812;2022-11-20T04:54:02;94743.50;;;4.62;82.10
47750;BME280;49810;48.160;10.812;2022-11-20T04:56:30;94747.44;;;4.53;82.20
47750;BME280;49810;48.160;10.812;2022-11-20T04:59:00;94737.88;;;4.47;82.00
47750;BME280;49810;48.160;10.812;2022-11-20T05:01:29;94741.22;;;4.36;82.21
47750;BME280;49810;48.160;10.812;2022-11-20T05:03:59;94747.47;;;4.17;83.23
47750;BME280;49810;48.160;10.812;2022-11-20T05:06:27;94751.53;;;4.13;83.68
47750;BME280;49810;48.160;10.812;2022-11-20T05:08:55;94750.88;;;4.18;83.60
47750;BME280;49810;48.160;10.812;2022-11-20T05:11:25;94746.38;;;4.07;83.54
47750;BME280;49810;48.160;10.812;2022-11-20T05:13:58;94747.75;;;4.09;83.87
47750;BME280;49810;48.160;10.812;2022-11-20T05:16:27;94747.16;;;4.07;84.22
47750;BME280;49810;48.160;10.812;2022-11-20T05:18:55;94741.94;;;4.07;84.24
47750;BME280;49810;48.160;10.812;2022-11-20T05:21:23;94736.75;;;4.01;83.68
47750;BME280;49810;48.160;10.812;2022-11-20T05:23:51;94746.06;;;4.15;83.55
47750;BME280;49810;48.160;10.812;2022-11-20T05:26:21;94747.31;;;4.12;83.34
47750;BME280;49810;48.160;10.812;2022-11-20T05:28:51;94749.66;;;4.20;82.72
47750;BME280;49810;48.160;10.812;2022-11-20T05:31:21;94743.38;;;4.21;82.54
47750;BME280;49810;48.160;10.812;2022-11-20T05:33:55;94749.22;;;4.23;82.44
47750;BME280;49810;48.160;10.812;2022-11-20T05:36:24;94738.81;;;4.17;82.55
47750;BME280;49810;48.160;10.812;2022-11-20T05:38:52;94749.28;;;4.17;82.09
47750;BME280;49810;48.160;10.812;2022-11-20T05:41:27;94749.50;;;4.15;82.39
47750;BME280;49810;48.160;10.812;2022-11-20T05:43:57;94743.44;;;4.15;82.56
47750;BME280;49810;48.160;10.812;2022-11-20T05:46:26;94737.16;;;4.04;82.71
47750;BME280;49810;48.160;10.812;2022-11-20T05:48:56;94733.09;;;4.08;82.64
47750;BME280;49810;48.160;10.812;2022-11-20T05:51:26;94741.94;;;4.07;82.42
47750;BME280;49810;48.160;10.812;2022-11-20T05:53:56;94733.50;;;4.05;82.39
47750;BME280;49810;48.160;10.812;2022-11-20T05:56:24;94733.31;;;4.07;82.84
47750;BME280;49810;48.160;10.812;2022-11-20T05:58:52;94730.84;;;4.12;82.13
47750;BME280;49810;48.160;10.812;2022-11-20T06:01:23;94731.19;;;4.15;82.14
47750;BME280;49810;48.160;10.812;2022-11-20T06:03:52;94738.22;;;4.15;82.14
47750;BME280;49810;48.160;10.812;2022-11-20T06:06:21;94734.53;;;4.22;81.57
47750;BME280;49810;48.160;10.812;2022-11-20T06:08:49;94729.66;;;4.26;81.63
47750;BME280;49810;48.160;10.812;2022-11-20T06:11:18;94733.66;;;4.28;81.35
47750;BME280;49810;48.160;10.812;2022-11-20T06:13:48;94741.00;;;4.38;81.32
47750;BME280;49810;48.160;10.812;2022-11-20T06:16:18;94750.44;;;4.39;81.43
47750;BME280;49810;48.160;10.812;2022-11-20T06:18:48;94751.75;;;4.30;81.44
47750;BME280;49810;48.160;10.812;2022-11-20T06:21:18;94760.91;;;4.21;81.70
47750;BME280;49810;48.160;10.812;2022-11-20T06:23:46;94761.13;;;4.37;81.54
47750;BME280;49810;48.160;10.812;2022-11-20T06:26:17;94748.69;;;4.33;81.59
47750;BME280;49810;48.160;10.812;2022-11-20T06:28:45;94754.59;;;4.46;81.49
47750;BME280;49810;48.160;10.812;2022-11-20T06:31:15;94759.69;;;4.41;81.66
47750;BME280;49810;48.160;10.812;2022-11-20T06:33:44;94756.19;;;4.47;81.39
47750;BME280;49810;48.160;10.812;2022-11-20T06:36:15;94757.41;;;4.45;81.32
47750;BME280;49810;48.160;10.812;2022-11-20T06:38:44;94758.09;;;4.40;81.71
47750;BME280;49810;48.160;10.812;2022-11-20T06:41:15;94760.84;;;4.45;81.34
47750;BME280;49810;48.160;10.812;2022-11-20T06:43:43;94762.88;;;4.43;81.35
47750;BME280;49810;48.160;10.812;2022-11-20T06:46:13;94760.19;;;4.50;80.96
47750;BME280;49810;48.160;10.812;2022-11-20T06:48:44;94760.19;;;4.50;80.72
47750;BME280;49810;48.160;10.812;2022-11-20T06:51:14;94760.63;;;4.47;81.04
47750;BME280;49810;48.160;10.812;2022-11-20T06:53:42;94778.22;;;4.58;80.58
47750;BME280;49810;48.160;10.812;2022-11-20T06:56:10;94770.50;;;4.63;80.54
47750;BME280;49810;48.160;10.812;2022-11-20T06:58:38;94770.28;;;4.64;80.59
47750;BME280;49810;48.160;10.812;2022-11-20T07:01:08;94780.63;;;4.59;80.73
47750;BME280;49810;48.160;10.812;2022-11-20T07:03:38;94786.06;;;4.58;80.80
47750;BME280;49810;48.160;10.812;2022-11-20T07:06:07;94782.56;;;4.64;80.75
47750;BME280;49810;48.160;10.812;2022-11-20T07:08:36;94786.34;;;4.68;80.48
47750;BME280;49810;48.160;10.812;2022-11-20T07:11:06;94787.84;;;4.75;80.16
47750;BME280;49810;48.160;10.812;2022-11-20T07:13:35;94787.78;;;4.64;80.41
47750;BME280;49810;48.160;10.812;2022-11-20T07:16:04;94788.09;;;4.74;80.27
47750;BME280;49810;48.160;10.812;2022-11-20T07:18:34;94781.16;;;4.79;80.18
47750;BME280;49810;48.160;10.812;2022-11-20T07:21:02;94794.47;;;4.78;80.29
47750;BME280;49810;48.160;10.812;2022-11-20T07:23:31;94792.00;;;4.83;80.46
47750;BME280;49810;48.160;10.812;2022-11-20T07:26:04;94800.59;;;4.72;80.78
47750;BME280;49810;48.160;10.812;2022-11-20T07:28:32;94790.19;;;4.83;80.14
47750;BME280;49810;48.160;10.812;2022-11-20T07:31:01;94784.94;;;4.83;80.58
47750;BME280;49810;48.160;10.812;2022-11-20T07:33:29;94795.28;;;4.78;80.52
47750;BME280;49810;48.160;10.812;2022-11-20T07:35:58;94797.91;;;4.78;80.42
47750;BME280;49810;48.160;10.812;2022-11-20T07:38:27;94819.53;;;4.74;80.49
47750;BME280;49810;48.160;10.812;2022-11-20T07:40:55;94798.25;;;4.82;79.92
47750;BME280;49810;48.160;10.812;2022-11-20T07:43:25;94799.13;;;4.94;79.90
47750;BME280;49810;48.160;10.812;2022-11-20T07:45:54;94795.38;;;5.01;79.73
47750;BME280;49810;48.160;10.812;2022-11-20T07:48:23;94805.56;;;5.09;79.15
47750;BME280;49810;48.160;10.812;2022-11-20T07:50:53;94802.06;;;5.15;78.88
47750;BME280;49810;48.160;10.812;2022-11-20T07:53:21;94804.19;;;5.36;78.63
47750;BME280;49810;48.160;10.812;2022-11-20T07:55:50;94807.97;;;5.40;78.31
47750;BME280;49810;48.160;10.812;2022-11-20T07:58:19;94797.13;;;5.48;77.83
47750;BME280;49810;48.160;10.812;2022-11-20T08:00:48;94791.81;;;5.66;77.21
47750;BME280;49810;48.160;10.812;2022-11-20T08:03:17;94789.88;;;5.62;77.67
47750;BME280;49810;48.160;10.812;2022-11-20T08:05:51;94786.91;;;5.58;77.59
47750;BME280;49810;48.160;10.812;2022-11-20T08:08:20;94790.22;;;5.65;77.41
47750;BME280;49810;48.160;10.812;2022-11-20T08:10:48;94790.53;;;5.57;77.42
47750;BME280;49810;48.160;10.812;2022-11-20T08:13:16;94782.66;;;5.46;77.82
47750;BME280;49810;48.160;10.812;2022-11-20T08:16:03;94800.25;;;5.57;77.40
47750;BME280;49810;48.160;10.812;2022-11-20T08:18:32;94799.22;;;5.58;77.12
47750;BME280;49810;48.160;10.812;2022-11-20T08:21:02;94781.81;;;5.75;76.57
47750;BME280;49810;48.160;10.812;2022-11-20T08:23:30;94803.06;;;5.85;76.00
47750;BME280;49810;48.160;10.812;2022-11-20T08:25:59;94780.81;;;5.87;75.86
47750;BME280;49810;48.160;10.812;2022-11-20T08:28:27;94791.06;;;5.77;75.89
47750;BME280;49810;48.160;10.812;2022-11-20T08:30:58;94800.72;;;5.77;75.48
47750;BME280;49810;48.160;10.812;2022-11-20T08:33:28;94802.31;;;5.78;75.42
47750;BME280;49810;48.160;10.812;2022-11-20T08:35:59;94805.19;;;5.76;74.91
47750;BME280;49810;48.160;10.812;2022-11-20T08:38:28;94793.59;;;5.84;75.23
47750;BME280;49810;48.160;10.812;2022-11-20T08:40:57;94794.22;;;5.79;75.12
47750;BME280;49810;48.160;10.812;2022-11-20T08:43:43;94790.28;;;5.88;75.61
47750;BME280;49810;48.160;10.812;2022-11-20T08:46:11;94799.06;;;5.82;75.53
47750;BME280;49810;48.160;10.812;2022-11-20T08:48:41;94786.41;;;5.91;74.95
47750;BME280;49810;48.160;10.812;2022-11-20T08:51:11;94793.25;;;5.80;75.26
47750;BME280;49810;48.160;10.812;2022-11-20T08:53:39;94793.28;;;5.92;75.08
47750;BME280;49810;48.160;10.812;2022-11-20T08:56:08;94794.75;;;5.88;75.11
47750;BME280;49810;48.160;10.812;2022-11-20T08:58:37;94787.88;;;5.98;75.12
47750;BME280;49810;48.160;10.812;2022-11-20T09:01:28;94791.09;;;6.00;74.53
47750;BME280;49810;48.160;10.812;2022-11-20T09:03:57;94787.66;;;6.00;74.38
47750;BME280;49810;48.160;10.812;2022-11-20T09:06:26;94777.41;;;6.21;73.44
47750;BME280;49810;48.160;10.812;2022-11-20T09:08:55;94774.78;;;6.21;73.68
47750;BME280;49810;48.160;10.812;2022-11-20T09:11:29;94785.16;;;6.39;72.74
47750;BME280;49810;48.160;10.812;2022-11-20T09:13:57;94772.38;;;6.43;72.34
47750;BME280;49810;48.160;10.812;2022-11-20T09:16:25;94781.59;;;6.57;72.47
47750;BME280;49810;48.160;10.812;2022-11-20T09:18:53;94790.59;;;6.72;71.84
47750;BME280;49810;48.160;10.812;2022-11-20T09:21:43;94787.59;;;6.80;72.05
47750;BME280;49810;48.160;10.812;2022-11-20T09:24:11;94784.59;;;6.88;71.70
47750;BME280;49810;48.160;10.812;2022-11-20T09:26:39;94785.06;;;6.85;71.52
47750;BME280;49810;48.160;10.812;2022-11-20T09:29:07;94794.88;;;6.90;72.11
47750;BME280;49810;48.160;10.812;2022-11-20T09:31:35;94793.19;;;6.84;71.40
47750;BME280;49810;48.160;10.812;2022-11-20T09:34:03;94790.38;;;6.62;71.37
47750;BME280;49810;48.160;10.812;2022-11-20T09:36:31;94784.75;;;6.70;71.63
47750;BME280;49810;48.160;10.812;2022-11-20T09:39:01;94786.63;;;6.58;72.02
47750;BME280;49810;48.160;10.812;2022-11-20T09:41:45;94778.53;;;6.48;72.01
47750;BME280;49810;48.160;10.812;2022-11-20T09:44:27;94792.53;;;6.54;71.18
47750;BME280;49810;48.160;10.812;2022-11-20T09:47:02;94777.94;;;6.46;72.04
47750;BME280;49810;48.160;10.812;2022-11-20T09:49:43;94786.75;;;6.40;71.92
47750;BME280;49810;48.160;10.812;2022-11-20T09:52:22;94780.69;;;6.51;72.49
47750;BME280;49810;48.160;10.812;2022-11-20T09:54:56;94783.38;;;6.68;71.36
47750;BME280;49810;48.160;10.812;2022-11-20T09:57:31;94787.97;;;6.72;71.21
47750;BME280;49810;48.160;10.812;2022-11-20T10:00:02;94799.97;;;6.57;71.07
47750;BME280;49810;48.160;10.812;2022-11-20T10:02:42;94790.50;;;6.56;71.66
47750;BME280;49810;48.160;10.812;2022-11-20T10:05:18;94778.75;;;6.58;71.38
47750;BME280;49810;48.160;10.812;2022-11-20T10:07:52;94770.78;;;6.42;71.80
47750;BME280;49810;48.160;10.812;2022-11-20T10:10:31;94776.59;;;6.44;71.95
47750;BME280;49810;48.160;10.812;2022-11-20T10:13:19;94764.50;;;6.31;71.60
47750;BME280;49810;48.160;10.812;2022-11-20T10:15:58;94776.72;;;6.26;72.75
47750;BME280;49810;48.160;10.812;2022-11-20T10:18:42;94783.69;;;6.20;73.41
47750;BME280;49810;48.160;10.812;2022-11-20T10:21:18;94781.97;;;6.14;73.32
47750;BME280;49810;48.160;10.812;2022-11-20T10:23:59;94777.97;;;6.12;73.74
47750;BME280;49810;48.160;10.812;2022-11-20T10:26:40;94786.19;;;6.04;73.80
47750;BME280;49810;48.160;10.812;2022-11-20T10:29:12;94798.84;;;6.30;73.28
47750;BME280;49810;48.160;10.812;2022-11-20T10:31:44;94791.53;;;6.43;72.56
47750;BME280;49810;48.160;10.812;2022-11-20T10:34:20;94792.91;;;6.57;71.85
47750;BME280;49810;48.160;10.812;2022-11-20T10:36:54;94805.66;;;6.65;71.45
47750;BME280;49810;48.160;10.812;2022-11-20T10:39:31;94807.84;;;6.57;71.56
47750;BME280;49810;48.160;10.812;2022-11-20T10:42:08;94792.66;;;6.47;71.45
47750;BME280;49810;48.160;10.812;2022-11-20T10:44:39;94797.47;;;6.50;72.33
47750;BME280;49810;48.160;10.812;2022-11-20T10:47:32;94784.34;;;6.39;71.73
47750;BME280;49810;48.160;10.812;2022-11-20T10:50:03;94796.41;;;6.63;71.19
47750;BME280;49810;48.160;10.812;2022-11-20T10:52:39;94787.16;;;6.72;70.04
47750;BME280;49810;48.160;10.812;2022-11-20T10:55:22;94775.63;;;6.61;70.24
47750;BME280;49810;48.160;10.812;2022-11-20T10:58:01;94784.66;;;6.54;70.94
47750;BME280;49810;48.160;10.812;2022-11-20T11:00:33;94777.63;;;6.43;70.52
47750;BME280;49810;48.160;10.812;2022-11-20T11:03:02;94777.16;;;6.34;71.00
47750;BME280;49810;48.160;10.812;2022-11-20T11:05:35;94789.03;;;6.25;71.31
47750;BME280;49810;48.160;10.812;2022-11-20T11:08:07;94782.19;;;6.13;74.19
47750;BME280;49810;48.160;10.812;2022-11-20T11:10:42;94789.84;;;5.91;77.05
47750;BME280;49810;48.160;10.812;2022-11-20T11:13:21;94779.28;;;5.68;78.80
47750;BME280;49810;48.160;10.812;2022-11-20T11:15:51;94790.31;;;5.47;77.41
47750;BME280;49810;48.160;10.812;2022-11-20T11:18:24;94777.06;;;5.42;76.99
47750;BME280;49810;48.160;10.812;2022-11-20T11:20:54;94776.50;;;5.40;78.00
47750;BME280;49810;48.160;10.812;2022-11-20T11:23:30;94779.47;;;5.44;79.14
47750;BME280;49810;48.160;10.812;2022-11-20T11:26:00;94754.16;;;5.38;78.09
47750;BME280;49810;48.160;10.812;2022-11-20T11:28:29;94769.09;;;5.37;79.10
47750;BME280;49810;48.160;10.812;2022-11-20T11:30:58;94766.59;;;5.42;79.20
47750;BME280;49810;48.160;10.812;2022-11-20T11:33:27;94757.16;;;5.53;79.82
47750;BME280;49810;48.160;10.812;2022-11-20T11:35:59;94757.28;;;5.69;77.81
47750;BME280;49810;48.160;10.812;2022-11-20T11:38:32;94759.00;;;5.75;77.72
47750;BME280;49810;48.160;10.812;2022-11-20T11:41:03;94760.75;;;5.93;76.84
47750;BME280;49810;48.160;10.812;2022-11-20T11:43:35;94767.47;;;5.89;76.49
47750;BME280;49810;48.160;10.812;2022-11-20T11:46:27;94759.84;;;5.87;76.62
47750;BME280;49810;48.160;10.812;2022-11-20T11:48:58;94768.53;;;5.88;76.33
47750;BME280;49810;48.160;10.812;2022-11-20T11:51:32;94750.81;;;5.83;76.33
47750;BME280;49810;48.160;10.812;2022-11-20T11:54:08;94757.44;;;5.97;76.62
47750;BME280;49810;48.160;10.812;2022-11-20T11:56:42;94761.53;;;5.93;75.44
47750;BME280;49810;48.160;10.812;2022-11-20T11:59:17;94754.81;;;5.97;76.05
47750;BME280;49810;48.160;10.812;2022-11-20T12:01:55;94746.59;;;5.94;78.38
47750;BME280;49810;48.160;10.812;2022-11-20T12:04:29;94738.25;;;5.74;79.98
47750;BME280;49810;48.160;10.812;2022-11-20T12:07:10;94734.94;;;5.67;80.06
47750;BME280;49810;48.160;10.812;2022-11-20T12:10:00;94734.91;;;5.55;79.10
47750;BME280;49810;48.160;10.812;2022-11-20T12:12:32;94756.81;;;5.61;81.80
47750;BME280;49810;48.160;10.812;2022-11-20T12:15:06;94741.50;;;5.35;83.81
47750;BME280;49810;48.160;10.812;2022-11-20T12:17:37;94750.00;;;5.19;85.67
47750;BME280;49810;48.160;10.812;2022-11-20T12:20:12;94745.19;;;5.04;86.76
47750;BME280;49810;48.160;10.812;2022-11-20T12:22:45;94743.00;;;5.01;86.18
47750;BME280;49810;48.160;10.812;2022-11-20T12:25:20;94739.94;;;5.04;86.35
47750;BME280;49810;48.160;10.812;2022-11-20T12:28:13;94748.19;;;5.19;87.35
47750;BME280;49810;48.160;10.812;2022-11-20T12:30:58;94737.25;;;5.22;87.21
47750;BME280;49810;48.160;10.812;2022-11-20T12:33:46;94737.38;;;5.27;87.70
47750;BME280;49810;48.160;10.812;2022-11-20T12:36:27;94736.69;;;5.32;87.39
47750;BME280;49810;48.160;10.812;2022-11-20T12:39:07;94737.16;;;5.29;86.69
47750;BME280;49810;48.160;10.812;2022-11-20T12:41:54;94736.13;;;5.30;86.40
47750;BME280;49810;48.160;10.812;2022-11-20T12:45:14;94742.50;;;5.22;85.23
47750;BME280;49810;48.160;10.812;2022-11-20T12:50:47;94733.25;;;5.08;85.63
47750;BME280;49810;48.160;10.812;2022-11-20T12:53:43;94740.50;;;5.06;86.36
47750;BME280;49810;48.160;10.812;2022-11-20T12:56:23;94735.72;;;5.03;86.81
47750;BME280;49810;48.160;10.812;2022-11-20T12:59:07;94736.06;;;5.07;86.81
47750;BME280;49810;48.160;10.812;2022-11-20T13:01:47;94730.72;;;5.02;87.15
47750;BME280;49810;48.160;10.812;2022-11-20T13:04:32;94735.84;;;5.08;87.57
47750;BME280;49810;48.160;10.812;2022-11-20T13:07:04;94733.47;;;5.07;87.31
47750;BME280;49810;48.160;10.812;2022-11-20T13:09:42;94727.19;;;5.08;87.04
47750;BME280;49810;48.160;10.812;2022-11-20T13:12:14;94715.34;;;5.05;86.33
47750;BME280;49810;48.160;10.812;2022-11-20T13:14:47;94723.34;;;5.22;86.00
47750;BME280;49810;48.160;10.812;2022-11-20T13:17:24;94721.16;;;5.19;85.80
47750;BME280;49810;48.160;10.812;2022-11-20T13:19:58;94724.06;;;5.29;85.70
47750;BME280;49810;48.160;10.812;2022-11-20T13:22:27;94710.03;;;5.35;85.70
47750;BME280;49810;48.160;10.812;2022-11-20T13:24:56;94714.38;;;5.41;84.47
47750;BME280;49810;48.160;10.812;2022-11-20T13:27:24;94695.81;;;5.42;84.04